sensor_id;sensor_type;location;lat;lon;timestamp;P1;durP1;ratioP1;P2;durP2;ratioP2
11731;SDS011;5922;53.734;10.258;2023-02-14T00:00:28;23.57;;;17.03;;
11731;SDS011;5922;53.734;10.258;2023-02-14T00:02:56;24.87;;;18.33;;
11731;SDS011;5922;53.734;10.258;2023-02-14T00:05:25;28.40;;;19.73;;
11731;SDS011;5922;53.734;10.258;2023-02-14T00:07:52;28.53;;;19.53;;
11731;SDS011;5922;53.734;10.258;2023-02-14T00:10:19;29.37;;;19.57;;
11731;SDS011;5922;53.734;10.258;2023-02-14T00:12:47;29.13;;;20.17;;
11731;SDS011;5922;53.734;10.258;2023-02-14T00:15:14;26.30;;;19.13;;
11731;SDS011;5922;53.734;10.258;2023-02-14T00:17:46;29.00;;;20.23;;
11731;SDS011;5922;53.734;10.258;2023-02-14T00:20:13;28.67;;;20.17;;
11731;SDS011;5922;53.734;10.258;2023-02-14T00:22:42;24.93;;;17.87;;
11731;SDS011;5922;53.734;10.258;2023-02-14T00:25:09;27.13;;;18.37;;
11731;SDS011;5922;53.734;10.258;2023-02-14T00:27:36;28.00;;;19.70;;
11731;SDS011;5922;53.734;10.258;2023-02-14T00:30:04;29.47;;;20.37;;
11731;SDS011;5922;53.734;10.258;2023-02-14T00:32:32;29.73;;;20.07;;
11731;SDS011;5922;53.734;10.258;2023-02-14T00:34:59;29.63;;;19.50;;
11731;SDS011;5922;53.734;10.258;2023-02-14T00:37:26;31.43;;;20.97;;
11731;SDS011;5922;53.734;10.258;2023-02-14T00:39:55;29.33;;;19.60;;
11731;SDS011;5922;53.734;10.258;2023-02-14T00:42:22;28.13;;;19.03;;
11731;SDS011;5922;53.734;10.258;2023-02-14T00:44:50;24.40;;;17.87;;
11731;SDS011;5922;53.734;10.258;2023-02-14T00:47:17;27.03;;;18.53;;
11731;SDS011;5922;53.734;10.258;2023-02-14T00:49:44;28.43;;;19.33;;
11731;SDS011;5922;53.734;10.258;2023-02-14T00:52:11;29.73;;;19.60;;
11731;SDS011;5922;53.734;10.258;2023-02-14T00:54:39;28.57;;;18.97;;
11731;SDS011;5922;53.734;10.258;2023-02-14T00:57:08;30.03;;;20.03;;
11731;SDS011;5922;53.734;10.258;2023-02-14T00:59:35;26.73;;;18.87;;
11731;SDS011;5922;53.734;10.258;2023-02-14T01:02:02;30.07;;;20.17;;
11731;SDS011;5922;53.734;10.258;2023-02-14T01:04:30;32.27;;;21.03;;
11731;SDS011;5922;53.734;10.258;2023-02-14T01:06:57;34.07;;;22.27;;
11731;SDS011;5922;53.734;10.258;2023-02-14T01:09:24;33.17;;;21.27;;
11731;SDS011;5922;53.734;10.258;2023-02-14T01:11:51;30.20;;;20.73;;
11731;SDS011;5922;53.734;10.258;2023-02-14T01:14:20;34.47;;;21.80;;
11731;SDS011;5922;53.734;10.258;2023-02-14T01:16:48;31.30;;;21.03;;
11731;SDS011;5922;53.734;10.258;2023-02-14T01:19:15;31.70;;;22.27;;
11731;SDS011;5922;53.734;10.258;2023-02-14T01:21:42;35.10;;;21.27;;
11731;SDS011;5922;53.734;10.258;2023-02-14T01:24:09;30.80;;;21.43;;
11731;SDS011;5922;53.734;10.258;2023-02-14T01:26:38;34.17;;;22.93;;
11731;SDS011;5922;53.734;10.258;2023-02-14T01:29:05;30.43;;;20.90;;
11731;SDS011;5922;53.734;10.258;2023-02-14T01:31:34;31.57;;;20.90;;
11731;SDS011;5922;53.734;10.258;2023-02-14T01:34:02;28.67;;;20.23;;
11731;SDS011;5922;53.734;10.258;2023-02-14T01:36:30;30.97;;;21.23;;
11731;SDS011;5922;53.734;10.258;2023-02-14T01:38:58;31.20;;;20.30;;
11731;SDS011;5922;53.734;10.258;2023-02-14T01:41:27;29.43;;;20.63;;
11731;SDS011;5922;53.734;10.258;2023-02-14T01:43:56;32.87;;;21.30;;
11731;SDS011;5922;53.734;10.258;2023-02-14T01:46:24;29.53;;;19.33;;
11731;SDS011;5922;53.734;10.258;2023-02-14T01:48:55;30.13;;;19.63;;
11731;SDS011;5922;53.734;10.258;2023-02-14T01:51:25;27.90;;;18.37;;
11731;SDS011;5922;53.734;10.258;2023-02-14T01:53:52;28.33;;;19.53;;
11731;SDS011;5922;53.734;10.258;2023-02-14T01:56:22;27.70;;;19.67;;
11731;SDS011;5922;53.734;10.258;2023-02-14T01:58:51;28.00;;;18.97;;
11731;SDS011;5922;53.734;10.258;2023-02-14T02:01:19;27.07;;;18.40;;
11731;SDS011;5922;53.734;10.258;2023-02-14T02:03:47;27.53;;;18.50;;
11731;SDS011;5922;53.734;10.258;2023-02-14T02:06:20;28.77;;;19.47;;
11731;SDS011;5922;53.734;10.258;2023-02-14T02:08:49;29.43;;;20.33;;
11731;SDS011;5922;53.734;10.258;2023-02-14T02:11:18;30.27;;;19.70;;
11731;SDS011;5922;53.734;10.258;2023-02-14T02:13:45;26.50;;;19.47;;
11731;SDS011;5922;53.734;10.258;2023-02-14T02:18:57;32.40;;;21.03;;
11731;SDS011;5922;53.734;10.258;2023-02-14T02:21:37;27.40;;;19.37;;
11731;SDS011;5922;53.734;10.258;2023-02-14T02:24:12;29.70;;;19.97;;
11731;SDS011;5922;53.734;10.258;2023-02-14T02:26:49;28.80;;;19.90;;
11731;SDS011;5922;53.734;10.258;2023-02-14T02:32:14;30.50;;;20.00;;
11731;SDS011;5922;53.734;10.258;2023-02-14T02:35:10;30.37;;;21.40;;
11731;SDS011;5922;53.734;10.258;2023-02-14T02:37:39;27.73;;;19.33;;
11731;SDS011;5922;53.734;10.258;2023-02-14T02:40:14;28.37;;;18.73;;
11731;SDS011;5922;53.734;10.258;2023-02-14T02:42:46;29.10;;;19.60;;
11731;SDS011;5922;53.734;10.258;2023-02-14T02:45:22;29.00;;;20.30;;
11731;SDS011;5922;53.734;10.258;2023-02-14T02:47:52;31.20;;;20.87;;
11731;SDS011;5922;53.734;10.258;2023-02-14T02:53:10;25.93;;;18.33;;
11731;SDS011;5922;53.734;10.258;2023-02-14T02:55:40;28.80;;;19.97;;
11731;SDS011;5922;53.734;10.258;2023-02-14T02:58:28;29.70;;;19.00;;
11731;SDS011;5922;53.734;10.258;2023-02-14T03:00:56;27.03;;;19.37;;
11731;SDS011;5922;53.734;10.258;2023-02-14T03:03:25;30.70;;;20.87;;
11731;SDS011;5922;53.734;10.258;2023-02-14T03:06:11;29.07;;;19.50;;
11731;SDS011;5922;53.734;10.258;2023-02-14T03:08:40;30.13;;;19.97;;
11731;SDS011;5922;53.734;10.258;2023-02-14T03:11:08;30.87;;;20.43;;
11731;SDS011;5922;53.734;10.258;2023-02-14T03:13:51;29.27;;;20.00;;
11731;SDS011;5922;53.734;10.258;2023-02-14T03:16:24;31.23;;;20.73;;
11731;SDS011;5922;53.734;10.258;2023-02-14T03:21:40;29.63;;;20.07;;
11731;SDS011;5922;53.734;10.258;2023-02-14T03:24:10;29.63;;;19.37;;
11731;SDS011;5922;53.734;10.258;2023-02-14T03:26:42;28.90;;;18.43;;
11731;SDS011;5922;53.734;10.258;2023-02-14T03:29:11;29.20;;;20.07;;
11731;SDS011;5922;53.734;10.258;2023-02-14T03:31:43;31.80;;;21.27;;
11731;SDS011;5922;53.734;10.258;2023-02-14T03:34:15;31.27;;;19.63;;
11731;SDS011;5922;53.734;10.258;2023-02-14T03:36:45;29.97;;;20.37;;
11731;SDS011;5922;53.734;10.258;2023-02-14T03:39:16;33.57;;;21.00;;
11731;SDS011;5922;53.734;10.258;2023-02-14T03:41:48;31.53;;;20.07;;
11731;SDS011;5922;53.734;10.258;2023-02-14T03:44:18;30.77;;;20.67;;
11731;SDS011;5922;53.734;10.258;2023-02-14T03:46:50;33.27;;;20.47;;
11731;SDS011;5922;53.734;10.258;2023-02-14T03:49:19;30.77;;;21.00;;
11731;SDS011;5922;53.734;10.258;2023-02-14T03:51:48;31.30;;;20.87;;
11731;SDS011;5922;53.734;10.258;2023-02-14T03:54:18;30.20;;;20.47;;
11731;SDS011;5922;53.734;10.258;2023-02-14T03:56:47;29.40;;;20.27;;
11731;SDS011;5922;53.734;10.258;2023-02-14T03:59:16;32.50;;;21.43;;
11731;SDS011;5922;53.734;10.258;2023-02-14T04:01:45;32.47;;;21.20;;
11731;SDS011;5922;53.734;10.258;2023-02-14T04:04:13;30.33;;;19.77;;
11731;SDS011;5922;53.734;10.258;2023-02-14T04:06:41;30.80;;;22.07;;
11731;SDS011;5922;53.734;10.258;2023-02-14T04:09:08;31.27;;;20.97;;
11731;SDS011;5922;53.734;10.258;2023-02-14T04:11:37;32.13;;;20.77;;
11731;SDS011;5922;53.734;10.258;2023-02-14T04:14:05;34.97;;;20.90;;
11731;SDS011;5922;53.734;10.258;2023-02-14T04:16:32;32.70;;;21.27;;
11731;SDS011;5922;53.734;10.258;2023-02-14T04:19:19;30.60;;;20.57;;
11731;SDS011;5922;53.734;10.258;2023-02-14T04:21:48;32.50;;;22.03;;
11731;SDS011;5922;53.734;10.258;2023-02-14T04:24:16;33.07;;;21.57;;
11731;SDS011;5922;53.734;10.258;2023-02-14T04:26:44;35.07;;;21.57;;
11731;SDS011;5922;53.734;10.258;2023-02-14T04:29:33;34.07;;;22.07;;
11731;SDS011;5922;53.734;10.258;2023-02-14T04:32:01;35.60;;;22.63;;
11731;SDS011;5922;53.734;10.258;2023-02-14T04:34:28;35.53;;;22.17;;
11731;SDS011;5922;53.734;10.258;2023-02-14T04:36:55;33.33;;;21.53;;
11731;SDS011;5922;53.734;10.258;2023-02-14T04:39:23;34.07;;;20.83;;
11731;SDS011;5922;53.734;10.258;2023-02-14T04:41:51;34.23;;;21.97;;
11731;SDS011;5922;53.734;10.258;2023-02-14T04:44:19;33.50;;;21.87;;
11731;SDS011;5922;53.734;10.258;2023-02-14T04:46:46;37.10;;;22.03;;
11731;SDS011;5922;53.734;10.258;2023-02-14T04:49:13;35.87;;;22.30;;
11731;SDS011;5922;53.734;10.258;2023-02-14T04:51:41;34.57;;;21.87;;
11731;SDS011;5922;53.734;10.258;2023-02-14T04:54:08;33.93;;;21.70;;
11731;SDS011;5922;53.734;10.258;2023-02-14T04:56:35;31.00;;;20.67;;
11731;SDS011;5922;53.734;10.258;2023-02-14T04:59:04;32.43;;;20.87;;
11731;SDS011;5922;53.734;10.258;2023-02-14T05:01:32;37.87;;;21.90;;
11731;SDS011;5922;53.734;10.258;2023-02-14T05:03:59;33.50;;;21.17;;
11731;SDS011;5922;53.734;10.258;2023-02-14T05:06:26;35.43;;;21.70;;
11731;SDS011;5922;53.734;10.258;2023-02-14T05:08:54;34.60;;;22.40;;
11731;SDS011;5922;53.734;10.258;2023-02-14T05:11:22;36.77;;;22.23;;
11731;SDS011;5922;53.734;10.258;2023-02-14T05:13:49;32.50;;;20.73;;
11731;SDS011;5922;53.734;10.258;2023-02-14T05:16:18;36.87;;;21.77;;
11731;SDS011;5922;53.734;10.258;2023-02-14T05:18:45;34.30;;;21.93;;
11731;SDS011;5922;53.734;10.258;2023-02-14T05:21:13;32.60;;;20.77;;
11731;SDS011;5922;53.734;10.258;2023-02-14T05:23:40;33.33;;;21.10;;
11731;SDS011;5922;53.734;10.258;2023-02-14T05:26:07;34.63;;;21.40;;
11731;SDS011;5922;53.734;10.258;2023-02-14T05:28:35;34.83;;;21.90;;
11731;SDS011;5922;53.734;10.258;2023-02-14T05:31:04;33.30;;;21.63;;
11731;SDS011;5922;53.734;10.258;2023-02-14T05:33:33;37.63;;;22.77;;
11731;SDS011;5922;53.734;10.258;2023-02-14T05:36:01;33.13;;;22.00;;
11731;SDS011;5922;53.734;10.258;2023-02-14T05:38:28;34.93;;;21.60;;
11731;SDS011;5922;53.734;10.258;2023-02-14T05:40:57;33.80;;;20.60;;
11731;SDS011;5922;53.734;10.258;2023-02-14T05:43:24;33.70;;;21.67;;
11731;SDS011;5922;53.734;10.258;2023-02-14T05:45:51;34.13;;;21.77;;
11731;SDS011;5922;53.734;10.258;2023-02-14T05:48:19;34.53;;;22.37;;
11731;SDS011;5922;53.734;10.258;2023-02-14T05:50:48;33.13;;;20.80;;
11731;SDS011;5922;53.734;10.258;2023-02-14T05:53:15;34.50;;;21.47;;
11731;SDS011;5922;53.734;10.258;2023-02-14T05:55:42;34.00;;;21.17;;
11731;SDS011;5922;53.734;10.258;2023-02-14T05:58:10;34.03;;;20.87;;
11731;SDS011;5922;53.734;10.258;2023-02-14T06:00:37;34.83;;;21.47;;
11731;SDS011;5922;53.734;10.258;2023-02-14T06:03:05;32.63;;;21.63;;
11731;SDS011;5922;53.734;10.258;2023-02-14T06:05:34;36.03;;;21.60;;
11731;SDS011;5922;53.734;10.258;2023-02-14T06:08:03;34.30;;;21.63;;
11731;SDS011;5922;53.734;10.258;2023-02-14T06:10:30;34.90;;;21.40;;
11731;SDS011;5922;53.734;10.258;2023-02-14T06:12:57;31.33;;;21.00;;
11731;SDS011;5922;53.734;10.258;2023-02-14T06:15:25;32.73;;;21.17;;
11731;SDS011;5922;53.734;10.258;2023-02-14T06:17:53;34.70;;;21.50;;
11731;SDS011;5922;53.734;10.258;2023-02-14T06:20:21;34.03;;;22.23;;
11731;SDS011;5922;53.734;10.258;2023-02-14T06:22:49;33.10;;;21.10;;
11731;SDS011;5922;53.734;10.258;2023-02-14T06:25:18;33.40;;;21.53;;
11731;SDS011;5922;53.734;10.258;2023-02-14T06:27:46;34.17;;;20.73;;
11731;SDS011;5922;53.734;10.258;2023-02-14T06:30:13;32.57;;;21.10;;
11731;SDS011;5922;53.734;10.258;2023-02-14T06:32:41;35.50;;;21.93;;
11731;SDS011;5922;53.734;10.258;2023-02-14T06:35:08;32.87;;;21.60;;
11731;SDS011;5922;53.734;10.258;2023-02-14T06:37:36;33.70;;;20.37;;
11731;SDS011;5922;53.734;10.258;2023-02-14T06:40:05;33.73;;;21.07;;
11731;SDS011;5922;53.734;10.258;2023-02-14T06:42:37;33.07;;;20.40;;
11731;SDS011;5922;53.734;10.258;2023-02-14T06:45:05;34.13;;;21.13;;
11731;SDS011;5922;53.734;10.258;2023-02-14T06:47:32;37.13;;;21.43;;
11731;SDS011;5922;53.734;10.258;2023-02-14T06:50:00;33.30;;;20.13;;
11731;SDS011;5922;53.734;10.258;2023-02-14T06:52:29;35.00;;;20.57;;
11731;SDS011;5922;53.734;10.258;2023-02-14T06:54:56;30.80;;;20.33;;
11731;SDS011;5922;53.734;10.258;2023-02-14T06:57:24;36.07;;;21.23;;
11731;SDS011;5922;53.734;10.258;2023-02-14T06:59:52;31.23;;;21.00;;
11731;SDS011;5922;53.734;10.258;2023-02-14T07:02:20;34.77;;;22.00;;
11731;SDS011;5922;53.734;10.258;2023-02-14T07:04:49;33.47;;;21.10;;
11731;SDS011;5922;53.734;10.258;2023-02-14T07:07:16;31.70;;;20.80;;
11731;SDS011;5922;53.734;10.258;2023-02-14T07:09:44;34.00;;;21.83;;
11731;SDS011;5922;53.734;10.258;2023-02-14T07:12:11;34.60;;;21.67;;
11731;SDS011;5922;53.734;10.258;2023-02-14T07:14:38;36.30;;;22.83;;
11731;SDS011;5922;53.734;10.258;2023-02-14T07:17:07;33.70;;;22.20;;
11731;SDS011;5922;53.734;10.258;2023-02-14T07:19:35;34.40;;;21.73;;
11731;SDS011;5922;53.734;10.258;2023-02-14T07:22:04;32.53;;;21.63;;
11731;SDS011;5922;53.734;10.258;2023-02-14T07:24:31;39.53;;;21.33;;
11731;SDS011;5922;53.734;10.258;2023-02-14T07:26:59;33.03;;;21.10;;
11731;SDS011;5922;53.734;10.258;2023-02-14T07:29:26;34.17;;;21.53;;
11731;SDS011;5922;53.734;10.258;2023-02-14T07:31:53;35.10;;;23.53;;
11731;SDS011;5922;53.734;10.258;2023-02-14T07:34:22;34.40;;;22.00;;
11731;SDS011;5922;53.734;10.258;2023-02-14T07:36:51;35.13;;;22.33;;
11731;SDS011;5922;53.734;10.258;2023-02-14T07:39:23;35.57;;;23.40;;
11731;SDS011;5922;53.734;10.258;2023-02-14T07:41:51;35.07;;;22.87;;
11731;SDS011;5922;53.734;10.258;2023-02-14T07:44:24;32.77;;;22.20;;
11731;SDS011;5922;53.734;10.258;2023-02-14T07:47:01;35.47;;;21.73;;
11731;SDS011;5922;53.734;10.258;2023-02-14T07:52:36;32.53;;;21.30;;
11731;SDS011;5922;53.734;10.258;2023-02-14T07:55:04;31.67;;;21.27;;
11731;SDS011;5922;53.734;10.258;2023-02-14T07:57:31;35.47;;;22.37;;
11731;SDS011;5922;53.734;10.258;2023-02-14T07:59:59;32.93;;;21.23;;
11731;SDS011;5922;53.734;10.258;2023-02-14T08:02:26;33.53;;;22.37;;
11731;SDS011;5922;53.734;10.258;2023-02-14T08:04:54;37.17;;;23.07;;
11731;SDS011;5922;53.734;10.258;2023-02-14T08:07:21;33.50;;;22.03;;
11731;SDS011;5922;53.734;10.258;2023-02-14T08:09:50;33.73;;;21.33;;
11731;SDS011;5922;53.734;10.258;2023-02-14T08:12:17;36.10;;;23.13;;
11731;SDS011;5922;53.734;10.258;2023-02-14T08:15:02;35.10;;;21.50;;
11731;SDS011;5922;53.734;10.258;2023-02-14T08:17:47;35.57;;;21.43;;
11731;SDS011;5922;53.734;10.258;2023-02-14T08:20:15;36.47;;;23.50;;
11731;SDS011;5922;53.734;10.258;2023-02-14T08:22:42;34.27;;;22.67;;
11731;SDS011;5922;53.734;10.258;2023-02-14T08:25:11;37.97;;;22.17;;
11731;SDS011;5922;53.734;10.258;2023-02-14T08:27:38;37.03;;;22.77;;
11731;SDS011;5922;53.734;10.258;2023-02-14T08:30:06;34.13;;;22.10;;
11731;SDS011;5922;53.734;10.258;2023-02-14T08:32:33;34.03;;;21.47;;
11731;SDS011;5922;53.734;10.258;2023-02-14T08:35:01;35.23;;;22.00;;
11731;SDS011;5922;53.734;10.258;2023-02-14T08:37:31;32.60;;;20.33;;
11731;SDS011;5922;53.734;10.258;2023-02-14T08:40:00;30.83;;;20.10;;
11731;SDS011;5922;53.734;10.258;2023-02-14T08:42:29;31.57;;;20.77;;
11731;SDS011;5922;53.734;10.258;2023-02-14T08:44:58;34.10;;;20.20;;
11731;SDS011;5922;53.734;10.258;2023-02-14T08:47:31;32.60;;;20.37;;
11731;SDS011;5922;53.734;10.258;2023-02-14T08:50:02;30.03;;;19.47;;
11731;SDS011;5922;53.734;10.258;2023-02-14T08:52:30;31.50;;;19.10;;
11731;SDS011;5922;53.734;10.258;2023-02-14T08:54:58;29.73;;;19.70;;
11731;SDS011;5922;53.734;10.258;2023-02-14T08:57:26;31.60;;;19.10;;
11731;SDS011;5922;53.734;10.258;2023-02-14T08:59:55;24.37;;;16.73;;
11731;SDS011;5922;53.734;10.258;2023-02-14T09:02:22;26.43;;;17.70;;
11731;SDS011;5922;53.734;10.258;2023-02-14T09:04:50;26.17;;;17.47;;
11731;SDS011;5922;53.734;10.258;2023-02-14T09:07:17;25.90;;;17.53;;
11731;SDS011;5922;53.734;10.258;2023-02-14T09:09:44;26.87;;;18.00;;
11731;SDS011;5922;53.734;10.258;2023-02-14T09:12:12;27.90;;;17.00;;
11731;SDS011;5922;53.734;10.258;2023-02-14T09:14:40;24.93;;;16.50;;
11731;SDS011;5922;53.734;10.258;2023-02-14T09:17:09;23.37;;;17.00;;
11731;SDS011;5922;53.734;10.258;2023-02-14T09:19:37;23.97;;;16.20;;
11731;SDS011;5922;53.734;10.258;2023-02-14T09:25:29;24.63;;;15.63;;
11731;SDS011;5922;53.734;10.258;2023-02-14T09:31:56;23.43;;;15.20;;
11731;SDS011;5922;53.734;10.258;2023-02-14T09:34:33;22.63;;;15.20;;
11731;SDS011;5922;53.734;10.258;2023-02-14T09:37:28;23.80;;;15.97;;
11731;SDS011;5922;53.734;10.258;2023-02-14T09:40:26;22.63;;;14.50;;
11731;SDS011;5922;53.734;10.258;2023-02-14T09:43:08;22.53;;;15.27;;
11731;SDS011;5922;53.734;10.258;2023-02-14T09:45:54;22.33;;;14.40;;
11731;SDS011;5922;53.734;10.258;2023-02-14T09:54:41;20.57;;;14.13;;
11731;SDS011;5922;53.734;10.258;2023-02-14T09:57:31;22.47;;;15.50;;
11731;SDS011;5922;53.734;10.258;2023-02-14T10:00:31;20.00;;;13.83;;
11731;SDS011;5922;53.734;10.258;2023-02-14T10:03:45;26.63;;;15.87;;
11731;SDS011;5922;53.734;10.258;2023-02-14T10:21:32;21.47;;;15.17;;
11731;SDS011;5922;53.734;10.258;2023-02-14T10:27:00;24.90;;;15.63;;
11731;SDS011;5922;53.734;10.258;2023-02-14T10:29:29;22.97;;;15.50;;
11731;SDS011;5922;53.734;10.258;2023-02-14T10:31:57;25.60;;;16.40;;
11731;SDS011;5922;53.734;10.258;2023-02-14T10:34:28;23.97;;;16.33;;
11731;SDS011;5922;53.734;10.258;2023-02-14T10:37:07;23.43;;;16.87;;
11731;SDS011;5922;53.734;10.258;2023-02-14T10:39:41;24.73;;;16.83;;
11731;SDS011;5922;53.734;10.258;2023-02-14T10:42:16;24.50;;;15.43;;
11731;SDS011;5922;53.734;10.258;2023-02-14T10:44:46;22.90;;;16.03;;
11731;SDS011;5922;53.734;10.258;2023-02-14T10:47:22;22.00;;;16.07;;
11731;SDS011;5922;53.734;10.258;2023-02-14T10:49:54;23.47;;;16.43;;
11731;SDS011;5922;53.734;10.258;2023-02-14T10:52:25;23.07;;;16.20;;
11731;SDS011;5922;53.734;10.258;2023-02-14T10:54:55;23.97;;;16.07;;
11731;SDS011;5922;53.734;10.258;2023-02-14T10:57:24;27.03;;;15.67;;
11731;SDS011;5922;53.734;10.258;2023-02-14T10:59:54;24.20;;;16.73;;
11731;SDS011;5922;53.734;10.258;2023-02-14T11:02:24;24.70;;;16.00;;
11731;SDS011;5922;53.734;10.258;2023-02-14T11:04:53;23.90;;;15.80;;
11731;SDS011;5922;53.734;10.258;2023-02-14T11:07:21;21.80;;;15.17;;
11731;SDS011;5922;53.734;10.258;2023-02-14T11:09:50;23.27;;;15.90;;
11731;SDS011;5922;53.734;10.258;2023-02-14T11:12:30;22.63;;;15.17;;
11731;SDS011;5922;53.734;10.258;2023-02-14T11:15:07;20.77;;;15.80;;
11731;SDS011;5922;53.734;10.258;2023-02-14T11:17:34;22.23;;;16.10;;
11731;SDS011;5922;53.734;10.258;2023-02-14T11:20:03;24.13;;;15.97;;
11731;SDS011;5922;53.734;10.258;2023-02-14T11:22:33;22.73;;;15.80;;
11731;SDS011;5922;53.734;10.258;2023-02-14T11:25:04;26.37;;;15.87;;
11731;SDS011;5922;53.734;10.258;2023-02-14T11:27:32;24.13;;;16.07;;
11731;SDS011;5922;53.734;10.258;2023-02-14T11:29:59;24.10;;;15.57;;
11731;SDS011;5922;53.734;10.258;2023-02-14T11:32:28;26.23;;;16.40;;
11731;SDS011;5922;53.734;10.258;2023-02-14T11:34:58;22.40;;;15.67;;
11731;SDS011;5922;53.734;10.258;2023-02-14T11:37:26;24.13;;;15.50;;
11731;SDS011;5922;53.734;10.258;2023-02-14T11:39:58;23.17;;;16.20;;
11731;SDS011;5922;53.734;10.258;2023-02-14T11:42:39;23.20;;;16.60;;
11731;SDS011;5922;53.734;10.258;2023-02-14T11:45:16;24.67;;;15.20;;
11731;SDS011;5922;53.734;10.258;2023-02-14T11:47:56;22.47;;;15.17;;
11731;SDS011;5922;53.734;10.258;2023-02-14T11:50:34;24.80;;;16.27;;
11731;SDS011;5922;53.734;10.258;2023-02-14T11:53:02;21.50;;;15.10;;
11731;SDS011;5922;53.734;10.258;2023-02-14T11:55:30;21.80;;;15.63;;
11731;SDS011;5922;53.734;10.258;2023-02-14T11:57:59;21.20;;;14.90;;
11731;SDS011;5922;53.734;10.258;2023-02-14T12:00:29;21.47;;;14.53;;
11731;SDS011;5922;53.734;10.258;2023-02-14T12:02:57;22.77;;;15.73;;
11731;SDS011;5922;53.734;10.258;2023-02-14T12:05:25;21.50;;;15.97;;
11731;SDS011;5922;53.734;10.258;2023-02-14T12:07:53;24.20;;;16.07;;
11731;SDS011;5922;53.734;10.258;2023-02-14T12:10:23;24.07;;;16.17;;
11731;SDS011;5922;53.734;10.258;2023-02-14T12:12:51;24.30;;;16.03;;
11731;SDS011;5922;53.734;10.258;2023-02-14T12:15:25;21.87;;;15.27;;
11731;SDS011;5922;53.734;10.258;2023-02-14T12:17:55;20.97;;;14.97;;
11731;SDS011;5922;53.734;10.258;2023-02-14T12:20:25;20.13;;;14.80;;
11731;SDS011;5922;53.734;10.258;2023-02-14T12:26:10;23.30;;;15.87;;
11731;SDS011;5922;53.734;10.258;2023-02-14T12:28:44;22.20;;;15.83;;
11731;SDS011;5922;53.734;10.258;2023-02-14T12:31:14;23.73;;;16.30;;
11731;SDS011;5922;53.734;10.258;2023-02-14T12:33:42;22.13;;;15.53;;
11731;SDS011;5922;53.734;10.258;2023-02-14T12:36:14;22.00;;;15.93;;
11731;SDS011;5922;53.734;10.258;2023-02-14T12:38:46;23.07;;;15.83;;
11731;SDS011;5922;53.734;10.258;2023-02-14T12:41:19;22.80;;;16.93;;
11731;SDS011;5922;53.734;10.258;2023-02-14T12:43:50;23.03;;;15.73;;
11731;SDS011;5922;53.734;10.258;2023-02-14T12:49:10;19.60;;;14.60;;
11731;SDS011;5922;53.734;10.258;2023-02-14T12:51:40;22.23;;;16.30;;
11731;SDS011;5922;53.734;10.258;2023-02-14T12:54:16;21.90;;;15.77;;
11731;SDS011;5922;53.734;10.258;2023-02-14T12:56:46;21.20;;;14.70;;
11731;SDS011;5922;53.734;10.258;2023-02-14T12:59:20;22.27;;;15.10;;
11731;SDS011;5922;53.734;10.258;2023-02-14T13:02:04;21.83;;;15.23;;
11731;SDS011;5922;53.734;10.258;2023-02-14T13:04:56;24.63;;;16.57;;
11731;SDS011;5922;53.734;10.258;2023-02-14T13:10:18;21.77;;;15.53;;
11731;SDS011;5922;53.734;10.258;2023-02-14T13:12:50;21.87;;;14.60;;
11731;SDS011;5922;53.734;10.258;2023-02-14T13:15:24;22.37;;;15.27;;
11731;SDS011;5922;53.734;10.258;2023-02-14T13:17:54;23.13;;;15.90;;
11731;SDS011;5922;53.734;10.258;2023-02-14T13:23:24;22.37;;;15.90;;
11731;SDS011;5922;53.734;10.258;2023-02-14T13:25:55;22.27;;;15.83;;
11731;SDS011;5922;53.734;10.258;2023-02-14T13:28:47;20.93;;;15.53;;
11731;SDS011;5922;53.734;10.258;2023-02-14T13:31:16;21.70;;;14.37;;
11731;SDS011;5922;53.734;10.258;2023-02-14T13:33:45;23.43;;;15.90;;
11731;SDS011;5922;53.734;10.258;2023-02-14T13:36:16;20.63;;;14.97;;
11731;SDS011;5922;53.734;10.258;2023-02-14T13:38:47;22.03;;;15.30;;
11731;SDS011;5922;53.734;10.258;2023-02-14T13:41:28;21.57;;;15.93;;
11731;SDS011;5922;53.734;10.258;2023-02-14T13:44:10;25.43;;;17.23;;
11731;SDS011;5922;53.734;10.258;2023-02-14T13:46:48;22.17;;;16.17;;
11731;SDS011;5922;53.734;10.258;2023-02-14T13:49:24;25.57;;;16.37;;
11731;SDS011;5922;53.734;10.258;2023-02-14T13:51:53;21.67;;;15.20;;
11731;SDS011;5922;53.734;10.258;2023-02-14T13:54:27;23.40;;;16.80;;
11731;SDS011;5922;53.734;10.258;2023-02-14T13:56:55;23.90;;;16.07;;
11731;SDS011;5922;53.734;10.258;2023-02-14T13:59:24;21.97;;;15.83;;
11731;SDS011;5922;53.734;10.258;2023-02-14T14:01:52;22.33;;;15.47;;
11731;SDS011;5922;53.734;10.258;2023-02-14T14:04:33;21.03;;;15.43;;
11731;SDS011;5922;53.734;10.258;2023-02-14T14:07:14;24.03;;;16.57;;
11731;SDS011;5922;53.734;10.258;2023-02-14T14:09:53;20.70;;;15.27;;
11731;SDS011;5922;53.734;10.258;2023-02-14T14:12:37;22.03;;;16.17;;
11731;SDS011;5922;53.734;10.258;2023-02-14T14:15:18;20.43;;;15.93;;
11731;SDS011;5922;53.734;10.258;2023-02-14T14:20:46;25.67;;;17.20;;
11731;SDS011;5922;53.734;10.258;2023-02-14T14:23:30;25.47;;;15.80;;
11731;SDS011;5922;53.734;10.258;2023-02-14T14:25:59;24.30;;;16.90;;
11731;SDS011;5922;53.734;10.258;2023-02-14T14:28:27;20.67;;;14.83;;
11731;SDS011;5922;53.734;10.258;2023-02-14T14:30:54;23.10;;;16.07;;
11731;SDS011;5922;53.734;10.258;2023-02-14T14:33:23;22.60;;;15.27;;
11731;SDS011;5922;53.734;10.258;2023-02-14T14:35:51;22.03;;;15.80;;
11731;SDS011;5922;53.734;10.258;2023-02-14T14:38:18;21.27;;;15.23;;
11731;SDS011;5922;53.734;10.258;2023-02-14T14:40:46;21.00;;;15.50;;
11731;SDS011;5922;53.734;10.258;2023-02-14T14:43:16;21.27;;;15.77;;
11731;SDS011;5922;53.734;10.258;2023-02-14T14:45:45;21.87;;;15.00;;
11731;SDS011;5922;53.734;10.258;2023-02-14T14:48:15;22.07;;;15.20;;
11731;SDS011;5922;53.734;10.258;2023-02-14T14:50:44;20.33;;;15.13;;
11731;SDS011;5922;53.734;10.258;2023-02-14T14:53:17;20.33;;;15.00;;
11731;SDS011;5922;53.734;10.258;2023-02-14T14:55:47;21.87;;;15.47;;
11731;SDS011;5922;53.734;10.258;2023-02-14T14:58:30;22.33;;;15.97;;
11731;SDS011;5922;53.734;10.258;2023-02-14T15:00:57;22.97;;;15.53;;
11731;SDS011;5922;53.734;10.258;2023-02-14T15:03:26;20.23;;;14.97;;
11731;SDS011;5922;53.734;10.258;2023-02-14T15:06:01;21.67;;;15.57;;
11731;SDS011;5922;53.734;10.258;2023-02-14T15:08:29;21.53;;;16.13;;
11731;SDS011;5922;53.734;10.258;2023-02-14T15:10:57;20.90;;;15.57;;
11731;SDS011;5922;53.734;10.258;2023-02-14T15:13:30;21.03;;;15.03;;
11731;SDS011;5922;53.734;10.258;2023-02-14T15:16:18;21.57;;;15.43;;
11731;SDS011;5922;53.734;10.258;2023-02-14T15:18:46;20.73;;;15.27;;
11731;SDS011;5922;53.734;10.258;2023-02-14T15:21:13;23.37;;;15.67;;
11731;SDS011;5922;53.734;10.258;2023-02-14T15:23:41;25.53;;;15.87;;
11731;SDS011;5922;53.734;10.258;2023-02-14T15:26:10;22.77;;;16.30;;
11731;SDS011;5922;53.734;10.258;2023-02-14T15:28:43;22.30;;;14.70;;
11731;SDS011;5922;53.734;10.258;2023-02-14T15:31:10;21.47;;;15.80;;
11731;SDS011;5922;53.734;10.258;2023-02-14T15:33:38;20.43;;;15.10;;
11731;SDS011;5922;53.734;10.258;2023-02-14T15:36:07;22.87;;;17.07;;
11731;SDS011;5922;53.734;10.258;2023-02-14T15:38:37;22.07;;;15.03;;
11731;SDS011;5922;53.734;10.258;2023-02-14T15:41:05;22.50;;;15.93;;